sensor_id;sensor_type;location;lat;lon;timestamp;pressure;altitude;pressure_sealevel;temperature;humidity
28648;BME280;17137;51.494;-0.262;2024-03-22T16:23:09;64275.46;;;21.72;57.58
28648;BME280;17137;51.494;-0.262;2024-03-22T16:23:39;50411.35;;;-145.72;58.35
28648;BME280;17137;51.494;-0.262;2024-03-22T16:24:09;50413.08;;;-145.72;56.83
28648;BME280;17137;51.494;-0.262;2024-03-22T16:24:39;50421.46;;;-145.72;54.87
28648;BME280;17137;51.494;-0.262;2024-03-22T16:25:10;50402.23;;;-145.72;53.90
28648;BME280;17137;51.494;-0.262;2024-03-22T16:25:40;50402.11;;;-145.72;53.17
28648;BME280;17137;51.494;-0.262;2024-03-22T16:26:10;50398.41;;;-145.72;54.61
28648;BME280;17137;51.494;-0.262;2024-03-22T16:26:40;50392.25;;;-145.72;52.42
28648;BME280;17137;51.494;-0.262;2024-03-22T16:27:11;50394.96;;;-145.72;51.99
28648;BME280;17137;51.494;-0.262;2024-03-22T16:27:41;50390.52;;;-145.72;52.37
28648;BME280;17137;51.494;-0.262;2024-03-22T16:28:11;50383.00;;;-145.72;50.61
28648;BME280;17137;51.494;-0.262;2024-03-22T16:28:41;50379.67;;;-145.72;49.89
28648;BME280;17137;51.494;-0.262;2024-03-22T16:29:12;50379.92;;;-145.72;51.28
28648;BME280;17137;51.494;-0.262;2024-03-22T16:29:42;50377.33;;;-145.72;50.04
28648;BME280;17137;51.494;-0.262;2024-03-22T16:30:13;50377.08;;;-145.72;49.24
28648;BME280;17137;51.494;-0.262;2024-03-22T16:30:43;50370.06;;;-145.72;48.63
28648;BME280;17137;51.494;-0.262;2024-03-22T16:31:14;50374.99;;;-145.72;48.50
28648;BME280;17137;51.494;-0.262;2024-03-22T16:31:44;50382.39;;;-145.72;47.58
28648;BME280;17137;51.494;-0.262;2024-03-22T16:32:14;50380.78;;;-145.72;47.87
28648;BME280;17137;51.494;-0.262;2024-03-22T16:32:45;50368.33;;;-145.72;47.93
28648;BME280;17137;51.494;-0.262;2024-03-22T16:33:15;50371.29;;;-145.72;49.84
28648;BME280;17137;51.494;-0.262;2024-03-22T16:33:45;50362.05;;;-145.72;48.73
28648;BME280;17137;51.494;-0.262;2024-03-22T16:34:15;50362.29;;;-145.72;47.15
28648;BME280;17137;51.494;-0.262;2024-03-22T16:34:46;50376.71;;;-145.72;46.49
28648;BME280;17137;51.494;-0.262;2024-03-22T16:35:16;50361.80;;;-145.72;46.12
28648;BME280;17137;51.494;-0.262;2024-03-22T16:35:46;50360.07;;;-145.72;46.09
28648;BME280;17137;51.494;-0.262;2024-03-22T16:36:17;50376.84;;;-145.72;45.84
28648;BME280;17137;51.494;-0.262;2024-03-22T16:36:47;50382.75;;;-145.72;46.48
28648;BME280;17137;51.494;-0.262;2024-03-22T16:37:17;50374.00;;;-145.72;47.37
28648;BME280;17137;51.494;-0.262;2024-03-22T16:37:47;50369.20;;;-145.72;49.14
28648;BME280;17137;51.494;-0.262;2024-03-22T16:38:18;50360.69;;;-145.72;45.42
28648;BME280;17137;51.494;-0.262;2024-03-22T16:38:48;50351.57;;;-145.72;44.37
28648;BME280;17137;51.494;-0.262;2024-03-22T16:39:18;50363.65;;;-145.72;44.15
28648;BME280;17137;51.494;-0.262;2024-03-22T16:39:48;50375.24;;;-145.72;43.34
28648;BME280;17137;51.494;-0.262;2024-03-22T16:40:48;50379.43;;;-145.72;43.30
28648;BME280;17137;51.494;-0.262;2024-03-22T16:41:19;50362.29;;;-145.72;43.08
28648;BME280;17137;51.494;-0.262;2024-03-22T16:41:49;50358.72;;;-145.72;43.08
28648;BME280;17137;51.494;-0.262;2024-03-22T16:42:19;50366.98;;;-145.72;43.01
28648;BME280;17137;51.494;-0.262;2024-03-22T16:42:50;50361.18;;;-145.72;42.53
28648;BME280;17137;51.494;-0.262;2024-03-22T16:43:20;50368.33;;;-145.72;42.43
28648;BME280;17137;51.494;-0.262;2024-03-22T16:43:50;50355.64;;;-145.72;42.87
28648;BME280;17137;51.494;-0.262;2024-03-22T16:44:21;50363.52;;;-145.72;42.52
28648;BME280;17137;51.494;-0.262;2024-03-22T16:44:51;50361.18;;;-145.72;41.96
28648;BME280;17137;51.494;-0.262;2024-03-22T16:45:21;50365.50;;;-145.72;41.90
28648;BME280;17137;51.494;-0.262;2024-03-22T16:45:51;50367.10;;;-145.72;42.99
28648;BME280;17137;51.494;-0.262;2024-03-22T16:46:22;50374.50;;;-145.72;42.98
28648;BME280;17137;51.494;-0.262;2024-03-22T16:46:52;50360.57;;;-145.72;42.68
28648;BME280;17137;51.494;-0.262;2024-03-22T16:47:22;50367.59;;;-145.72;42.68
28648;BME280;17137;51.494;-0.262;2024-03-22T16:47:52;50353.91;;;-145.72;41.86
28648;BME280;17137;51.494;-0.262;2024-03-22T16:48:22;50358.22;;;-145.72;42.62
28648;BME280;17137;51.494;-0.262;2024-03-22T16:48:53;50356.99;;;-145.72;41.37
28648;BME280;17137;51.494;-0.262;2024-03-22T16:49:23;50351.44;;;-145.72;43.20
28648;BME280;17137;51.494;-0.262;2024-03-22T16:49:53;50365.37;;;-145.72;41.85
28648;BME280;17137;51.494;-0.262;2024-03-22T16:50:24;50363.15;;;-145.72;41.39
28648;BME280;17137;51.494;-0.262;2024-03-22T16:50:54;50356.87;;;-145.72;41.73
28648;BME280;17137;51.494;-0.262;2024-03-22T16:51:24;50363.03;;;-145.72;41.96
28648;BME280;17137;51.494;-0.262;2024-03-22T16:51:54;50359.46;;;-145.72;42.03
28648;BME280;17137;51.494;-0.262;2024-03-22T16:52:24;50370.18;;;-145.72;42.09
28648;BME280;17137;51.494;-0.262;2024-03-22T16:52:55;50362.66;;;-145.72;41.66
28648;BME280;17137;51.494;-0.262;2024-03-22T16:53:25;50363.03;;;-145.72;41.48
28648;BME280;17137;51.494;-0.262;2024-03-22T16:53:56;50357.24;;;-145.72;41.67
28648;BME280;17137;51.494;-0.262;2024-03-22T16:54:26;50366.73;;;-145.72;41.19
28648;BME280;17137;51.494;-0.262;2024-03-22T16:54:56;50350.58;;;-145.72;41.01
28648;BME280;17137;51.494;-0.262;2024-03-22T16:55:27;50343.55;;;-145.72;40.49
28648;BME280;17137;51.494;-0.262;2024-03-22T16:55:57;50350.58;;;-145.72;39.95
28648;BME280;17137;51.494;-0.262;2024-03-22T16:56:27;50365.62;;;-145.72;39.61
28648;BME280;17137;51.494;-0.262;2024-03-22T16:56:57;50355.39;;;-145.72;39.74
28648;BME280;17137;51.494;-0.262;2024-03-22T16:57:28;50351.07;;;-145.72;39.75
28648;BME280;17137;51.494;-0.262;2024-03-22T16:57:58;50360.07;;;-145.72;39.83
28648;BME280;17137;51.494;-0.262;2024-03-22T16:58:28;50357.24;;;-145.72;39.66
28648;BME280;17137;51.494;-0.262;2024-03-22T16:58:58;50378.32;;;-145.72;39.75
28648;BME280;17137;51.494;-0.262;2024-03-22T16:59:28;50363.28;;;-145.72;39.89
28648;BME280;17137;51.494;-0.262;2024-03-22T16:59:59;50360.44;;;-145.72;41.36
28648;BME280;17137;51.494;-0.262;2024-03-22T17:00:29;50353.17;;;-145.72;41.57
28648;BME280;17137;51.494;-0.262;2024-03-22T17:01:02;50356.74;;;-145.72;39.99
28648;BME280;17137;51.494;-0.262;2024-03-22T17:01:33;50358.96;;;-145.72;40.05
28648;BME280;17137;51.494;-0.262;2024-03-22T17:02:03;50348.73;;;-145.72;40.37
28648;BME280;17137;51.494;-0.262;2024-03-22T17:02:33;50358.84;;;-145.72;40.71
28648;BME280;17137;51.494;-0.262;2024-03-22T17:03:04;50350.46;;;-145.72;40.84
28648;BME280;17137;51.494;-0.262;2024-03-22T17:03:34;50360.94;;;-145.72;40.92
28648;BME280;17137;51.494;-0.262;2024-03-22T17:04:05;50349.96;;;-145.72;41.28
28648;BME280;17137;51.494;-0.262;2024-03-22T17:04:35;50342.08;;;-145.72;40.01
28648;BME280;17137;51.494;-0.262;2024-03-22T17:05:06;50344.54;;;-145.72;40.02
28648;BME280;17137;51.494;-0.262;2024-03-22T17:05:37;50352.80;;;-145.72;39.77
28648;BME280;17137;51.494;-0.262;2024-03-22T17:06:07;50334.43;;;-145.72;39.17
28648;BME280;17137;51.494;-0.262;2024-03-22T17:06:37;50334.68;;;-145.72;38.99
28648;BME280;17137;51.494;-0.262;2024-03-22T17:07:07;50350.33;;;-145.72;38.96
28648;BME280;17137;51.494;-0.262;2024-03-22T17:07:38;50347.50;;;-145.72;38.78
28648;BME280;17137;51.494;-0.262;2024-03-22T17:08:08;50352.06;;;-145.72;38.70
28648;BME280;17137;51.494;-0.262;2024-03-22T17:08:38;50367.35;;;-145.72;38.62
28648;BME280;17137;51.494;-0.262;2024-03-22T17:09:09;50366.36;;;-145.72;38.73
28648;BME280;17137;51.494;-0.262;2024-03-22T17:09:44;50365.25;;;-145.72;39.09
28648;BME280;17137;51.494;-0.262;2024-03-22T17:10:14;50392.37;;;-145.72;40.11
28648;BME280;17137;51.494;-0.262;2024-03-22T17:10:45;50360.81;;;-145.72;40.46
28648;BME280;17137;51.494;-0.262;2024-03-22T17:11:15;50374.37;;;-145.72;39.56
28648;BME280;17137;51.494;-0.262;2024-03-22T17:11:45;50369.69;;;-145.72;39.42
28648;BME280;17137;51.494;-0.262;2024-03-22T17:12:16;50366.24;;;-145.72;41.27
28648;BME280;17137;51.494;-0.262;2024-03-22T17:12:46;50372.52;;;-145.72;40.37
28648;BME280;17137;51.494;-0.262;2024-03-22T17:13:16;50374.99;;;-145.72;39.64
28648;BME280;17137;51.494;-0.262;2024-03-22T17:13:46;50378.19;;;-145.72;39.42
28648;BME280;17137;51.494;-0.262;2024-03-22T17:14:17;50375.61;;;-145.72;39.24
28648;BME280;17137;51.494;-0.262;2024-03-22T17:14:47;50370.18;;;-145.72;39.18
28648;BME280;17137;51.494;-0.262;2024-03-22T17:15:17;50377.08;;;-145.72;39.09
28648;BME280;17137;51.494;-0.262;2024-03-22T17:15:53;50373.76;;;-145.72;39.04
28648;BME280;17137;51.494;-0.262;2024-03-22T17:16:23;50374.87;;;-145.72;39.12
28648;BME280;17137;51.494;-0.262;2024-03-22T17:16:53;50373.02;;;-145.72;39.30
28648;BME280;17137;51.494;-0.262;2024-03-22T17:17:24;50362.05;;;-145.72;39.75
28648;BME280;17137;51.494;-0.262;2024-03-22T17:17:54;50379.55;;;-145.72;39.91
28648;BME280;17137;51.494;-0.262;2024-03-22T17:18:24;50379.43;;;-145.72;39.73
28648;BME280;17137;51.494;-0.262;2024-03-22T17:18:54;50388.55;;;-145.72;39.77
28648;BME280;17137;51.494;-0.262;2024-03-22T17:19:25;50374.87;;;-145.72;39.36
28648;BME280;17137;51.494;-0.262;2024-03-22T17:19:55;50384.60;;;-145.72;38.99
28648;BME280;17137;51.494;-0.262;2024-03-22T17:20:25;50379.55;;;-145.72;39.24
28648;BME280;17137;51.494;-0.262;2024-03-22T17:20:56;50369.56;;;-145.72;39.24
28648;BME280;17137;51.494;-0.262;2024-03-22T17:21:26;50385.10;;;-145.72;39.14
28648;BME280;17137;51.494;-0.262;2024-03-22T17:21:56;50373.76;;;-145.72;39.18
28648;BME280;17137;51.494;-0.262;2024-03-22T17:22:26;50379.55;;;-145.72;39.13
28648;BME280;17137;51.494;-0.262;2024-03-22T17:22:57;50377.95;;;-145.72;39.09
28648;BME280;17137;51.494;-0.262;2024-03-22T17:23:28;50374.87;;;-145.72;39.07
28648;BME280;17137;51.494;-0.262;2024-03-22T17:23:58;50384.97;;;-145.72;39.05
28648;BME280;17137;51.494;-0.262;2024-03-22T17:24:28;50384.73;;;-145.72;39.01
28648;BME280;17137;51.494;-0.262;2024-03-22T17:24:58;50394.34;;;-145.72;39.28
28648;BME280;17137;51.494;-0.262;2024-03-22T17:25:29;50385.96;;;-145.72;39.31
28648;BME280;17137;51.494;-0.262;2024-03-22T17:25:59;50380.54;;;-145.72;39.13
28648;BME280;17137;51.494;-0.262;2024-03-22T17:26:29;50382.63;;;-145.72;39.15
28648;BME280;17137;51.494;-0.262;2024-03-22T17:26:59;50387.69;;;-145.72;39.10
28648;BME280;17137;51.494;-0.262;2024-03-22T17:27:30;50383.12;;;-145.72;39.06
28648;BME280;17137;51.494;-0.262;2024-03-22T17:28:00;50382.02;;;-145.72;39.16
28648;BME280;17137;51.494;-0.262;2024-03-22T17:28:30;50387.32;;;-145.72;39.24
28648;BME280;17137;51.494;-0.262;2024-03-22T17:29:01;50388.06;;;-145.72;39.42
28648;BME280;17137;51.494;-0.262;2024-03-22T17:29:31;50392.86;;;-145.72;39.51
28648;BME280;17137;51.494;-0.262;2024-03-22T17:30:01;50379.92;;;-145.72;41.65
28648;BME280;17137;51.494;-0.262;2024-03-22T17:30:31;50375.24;;;-145.72;45.00
28648;BME280;17137;51.494;-0.262;2024-03-22T17:31:02;50383.74;;;-145.72;43.42
28648;BME280;17137;51.494;-0.262;2024-03-22T17:31:32;50381.65;;;-145.72;40.38
28648;BME280;17137;51.494;-0.262;2024-03-22T17:32:03;50377.82;;;-145.72;39.99
28648;BME280;17137;51.494;-0.262;2024-03-22T17:32:34;50387.93;;;-145.72;39.90
28648;BME280;17137;51.494;-0.262;2024-03-22T17:33:04;50375.73;;;-145.72;40.43
28648;BME280;17137;51.494;-0.262;2024-03-22T17:33:34;50386.08;;;-145.72;40.46
28648;BME280;17137;51.494;-0.262;2024-03-22T17:34:05;50396.93;;;-145.72;39.91
28648;BME280;17137;51.494;-0.262;2024-03-22T17:34:35;50385.34;;;-145.72;40.20
28648;BME280;17137;51.494;-0.262;2024-03-22T17:35:06;50379.43;;;-145.72;39.90
28648;BME280;17137;51.494;-0.262;2024-03-22T17:35:36;50381.52;;;-145.72;40.45
28648;BME280;17137;51.494;-0.262;2024-03-22T17:36:07;50383.12;;;-145.72;40.97
28648;BME280;17137;51.494;-0.262;2024-03-22T17:36:37;50390.64;;;-145.72;42.20
28648;BME280;17137;51.494;-0.262;2024-03-22T17:37:07;50384.60;;;-145.72;41.24
28648;BME280;17137;51.494;-0.262;2024-03-22T17:37:38;50384.23;;;-145.72;41.78
28648;BME280;17137;51.494;-0.262;2024-03-22T17:38:08;50381.03;;;-145.72;40.97
28648;BME280;17137;51.494;-0.262;2024-03-22T17:38:38;50382.14;;;-145.72;40.44
28648;BME280;17137;51.494;-0.262;2024-03-22T17:39:09;50384.11;;;-145.72;39.73
28648;BME280;17137;51.494;-0.262;2024-03-22T17:39:39;50385.84;;;-145.72;40.80
28648;BME280;17137;51.494;-0.262;2024-03-22T17:40:11;50382.39;;;-145.72;42.26
28648;BME280;17137;51.494;-0.262;2024-03-22T17:40:41;50380.54;;;-145.72;41.87
28648;BME280;17137;51.494;-0.262;2024-03-22T17:41:12;50368.95;;;-145.72;40.72
28648;BME280;17137;51.494;-0.262;2024-03-22T17:41:42;50370.06;;;-145.72;41.70
28648;BME280;17137;51.494;-0.262;2024-03-22T17:42:12;50373.76;;;-145.72;42.52
28648;BME280;17137;51.494;-0.262;2024-03-22T17:42:43;50369.20;;;-145.72;41.53
28648;BME280;17137;51.494;-0.262;2024-03-22T17:43:13;50367.47;;;-145.72;40.98
28648;BME280;17137;51.494;-0.262;2024-03-22T17:43:44;50363.77;;;-145.72;39.34
28648;BME280;17137;51.494;-0.262;2024-03-22T17:44:16;50368.70;;;-145.72;39.33
28648;BME280;17137;51.494;-0.262;2024-03-22T17:44:47;50386.08;;;-145.72;39.09
28648;BME280;17137;51.494;-0.262;2024-03-22T17:45:17;50372.15;;;-145.72;38.96
28648;BME280;17137;51.494;-0.262;2024-03-22T17:45:55;50379.80;;;-145.72;39.10
28648;BME280;17137;51.494;-0.262;2024-03-22T17:46:26;50382.88;;;-145.72;39.13
28648;BME280;17137;51.494;-0.262;2024-03-22T17:46:56;50374.87;;;-145.72;39.07
28648;BME280;17137;51.494;-0.262;2024-03-22T17:47:26;50371.29;;;-145.72;38.98
28648;BME280;17137;51.494;-0.262;2024-03-22T17:47:57;50370.92;;;-145.72;39.19
28648;BME280;17137;51.494;-0.262;2024-03-22T17:48:27;50377.82;;;-145.72;39.16
28648;BME280;17137;51.494;-0.262;2024-03-22T17:48:57;50371.17;;;-145.72;39.18
28648;BME280;17137;51.494;-0.262;2024-03-22T17:49:28;50385.10;;;-145.72;39.19
28648;BME280;17137;51.494;-0.262;2024-03-22T17:49:59;50378.69;;;-145.72;39.14
28648;BME280;17137;51.494;-0.262;2024-03-22T17:50:29;50369.93;;;-145.72;39.17
28648;BME280;17137;51.494;-0.262;2024-03-22T17:50:59;50375.48;;;-145.72;39.26
28648;BME280;17137;51.494;-0.262;2024-03-22T17:51:30;50364.51;;;-145.72;39.29
28648;BME280;17137;51.494;-0.262;2024-03-22T17:52:00;50383.74;;;-145.72;39.30
28648;BME280;17137;51.494;-0.262;2024-03-22T17:52:31;50374.74;;;-145.72;39.23
28648;BME280;17137;51.494;-0.262;2024-03-22T17:53:01;50401.25;;;-145.72;39.62
28648;BME280;17137;51.494;-0.262;2024-03-22T17:53:32;50380.29;;;-145.72;39.60
28648;BME280;17137;51.494;-0.262;2024-03-22T17:54:03;50387.32;;;-145.72;39.67
28648;BME280;17137;51.494;-0.262;2024-03-22T17:54:33;50382.88;;;-145.72;39.61
28648;BME280;17137;51.494;-0.262;2024-03-22T17:55:04;50373.51;;;-145.72;39.65
28648;BME280;17137;51.494;-0.262;2024-03-22T17:55:35;50375.97;;;-145.72;39.95
28648;BME280;17137;51.494;-0.262;2024-03-22T17:56:05;50382.39;;;-145.72;39.85
28648;BME280;17137;51.494;-0.262;2024-03-22T17:56:41;50374.62;;;-145.72;39.88
28648;BME280;17137;51.494;-0.262;2024-03-22T17:57:11;50366.85;;;-145.72;39.72
28648;BME280;17137;51.494;-0.262;2024-03-22T17:57:42;50366.85;;;-145.72;39.71
28648;BME280;17137;51.494;-0.262;2024-03-22T17:58:12;50365.37;;;-145.72;39.65
28648;BME280;17137;51.494;-0.262;2024-03-22T17:58:43;50377.45;;;-145.72;39.59
28648;BME280;17137;51.494;-0.262;2024-03-22T17:59:14;50375.73;;;-145.72;39.53
28648;BME280;17137;51.494;-0.262;2024-03-22T17:59:44;50367.47;;;-145.72;39.83
28648;BME280;17137;51.494;-0.262;2024-03-22T18:00:15;50369.20;;;-145.72;39.91
28648;BME280;17137;51.494;-0.262;2024-03-22T18:00:45;50361.43;;;-145.72;39.84
28648;BME280;17137;51.494;-0.262;2024-03-22T18:01:16;50365.00;;;-145.72;39.83
28648;BME280;17137;51.494;-0.262;2024-03-22T18:01:46;50362.66;;;-145.72;39.79
28648;BME280;17137;51.494;-0.262;2024-03-22T18:02:16;50371.04;;;-145.72;39.62
28648;BME280;17137;51.494;-0.262;2024-03-22T18:02:47;50374.25;;;-145.72;39.57
28648;BME280;17137;51.494;-0.262;2024-03-22T18:03:17;50384.97;;;-145.72;39.72
28648;BME280;17137;51.494;-0.262;2024-03-22T18:03:53;50384.11;;;-145.72;39.76
28648;BME280;17137;51.494;-0.262;2024-03-22T18:04:24;50387.93;;;-145.72;39.99
28648;BME280;17137;51.494;-0.262;2024-03-22T18:04:54;50378.44;;;-145.72;40.13
28648;BME280;17137;51.494;-0.262;2024-03-22T18:05:24;50369.07;;;-145.72;40.21
28648;BME280;17137;51.494;-0.262;2024-03-22T18:05:55;50372.40;;;-145.72;40.13
28648;BME280;17137;51.494;-0.262;2024-03-22T18:06:25;50368.46;;;-145.72;40.15
28648;BME280;17137;51.494;-0.262;2024-03-22T18:06:56;50367.10;;;-145.72;40.27
28648;BME280;17137;51.494;-0.262;2024-03-22T18:07:26;50364.76;;;-145.72;40.13
28648;BME280;17137;51.494;-0.262;2024-03-22T18:08:02;50362.29;;;-145.72;40.13
28648;BME280;17137;51.494;-0.262;2024-03-22T18:08:33;50370.92;;;-145.72;40.21
28648;BME280;17137;51.494;-0.262;2024-03-22T18:09:03;50367.84;;;-145.72;40.15
28648;BME280;17137;51.494;-0.262;2024-03-22T18:09:34;50364.51;;;-145.72;39.96
28648;BME280;17137;51.494;-0.262;2024-03-22T18:10:05;50369.81;;;-145.72;39.79
28648;BME280;17137;51.494;-0.262;2024-03-22T18:10:35;50376.84;;;-145.72;39.77
28648;BME280;17137;51.494;-0.262;2024-03-22T18:11:06;50375.85;;;-145.72;39.78
28648;BME280;17137;51.494;-0.262;2024-03-22T18:11:37;50363.77;;;-145.72;39.82
28648;BME280;17137;51.494;-0.262;2024-03-22T18:12:07;50373.63;;;-145.72;40.16
28648;BME280;17137;51.494;-0.262;2024-03-22T18:12:38;50363.52;;;-145.72;40.18
28648;BME280;17137;51.494;-0.262;2024-03-22T18:13:08;50368.46;;;-145.72;39.97
28648;BME280;17137;51.494;-0.262;2024-03-22T18:13:39;50374.62;;;-145.72;40.23
28648;BME280;17137;51.494;-0.262;2024-03-22T18:14:09;50372.28;;;-145.72;40.50
28648;BME280;17137;51.494;-0.262;2024-03-22T18:14:40;50388.92;;;-145.72;40.50
28648;BME280;17137;51.494;-0.262;2024-03-22T18:15:10;50375.85;;;-145.72;40.31
28648;BME280;17137;51.494;-0.262;2024-03-22T18:15:41;50368.33;;;-145.72;40.39
28648;BME280;17137;51.494;-0.262;2024-03-22T18:16:11;50373.14;;;-145.72;40.37
28648;BME280;17137;51.494;-0.262;2024-03-22T18:16:41;50371.78;;;-145.72;40.30
28648;BME280;17137;51.494;-0.262;2024-03-22T18:17:12;50383.12;;;-145.72;40.52
28648;BME280;17137;51.494;-0.262;2024-03-22T18:17:42;50395.21;;;-145.72;40.57
28648;BME280;17137;51.494;-0.262;2024-03-22T18:18:12;50388.67;;;-145.72;40.37
28648;BME280;17137;51.494;-0.262;2024-03-22T18:18:43;50399.64;;;-145.72;40.71
28648;BME280;17137;51.494;-0.262;2024-03-22T18:19:15;50388.92;;;-145.72;40.59
28648;BME280;17137;51.494;-0.262;2024-03-22T18:19:46;50387.44;;;-145.72;40.38
28648;BME280;17137;51.494;-0.262;2024-03-22T18:20:17;50382.02;;;-145.72;40.37
28648;BME280;17137;51.494;-0.262;2024-03-22T18:20:47;50390.27;;;-145.72;40.41
28648;BME280;17137;51.494;-0.262;2024-03-22T18:21:17;50378.19;;;-145.72;40.09
28648;BME280;17137;51.494;-0.262;2024-03-22T18:21:48;50372.52;;;-145.72;40.22
28648;BME280;17137;51.494;-0.262;2024-03-22T18:22:18;50375.85;;;-145.72;40.23
28648;BME280;17137;51.494;-0.262;2024-03-22T18:22:49;50381.52;;;-145.72;40.48
28648;BME280;17137;51.494;-0.262;2024-03-22T18:23:19;50389.04;;;-145.72;40.62
28648;BME280;17137;51.494;-0.262;2024-03-22T18:23:50;50392.25;;;-145.72;40.60
28648;BME280;17137;51.494;-0.262;2024-03-22T18:24:20;50383.99;;;-145.72;40.43
28648;BME280;17137;51.494;-0.262;2024-03-22T18:24:51;50385.22;;;-145.72;40.31
28648;BME280;17137;51.494;-0.262;2024-03-22T18:25:51;50376.10;;;-145.72;40.36
28648;BME280;17137;51.494;-0.262;2024-03-22T18:26:23;50397.05;;;-145.72;40.85
28648;BME280;17137;51.494;-0.262;2024-03-22T18:26:53;50409.38;;;-145.72;41.70
28648;BME280;17137;51.494;-0.262;2024-03-22T18:27:24;50395.82;;;-145.72;41.50
28648;BME280;17137;51.494;-0.262;2024-03-22T18:27:55;50386.33;;;-145.72;41.27
28648;BME280;17137;51.494;-0.262;2024-03-22T18:28:26;50388.80;;;-145.72;41.14
28648;BME280;17137;51.494;-0.262;2024-03-22T18:28:56;50388.18;;;-145.72;40.94
28648;BME280;17137;51.494;-0.262;2024-03-22T18:29:32;50392.49;;;-145.72;41.07
28648;BME280;17137;51.494;-0.262;2024-03-22T18:30:12;50401.49;;;-145.72;41.40
28648;BME280;17137;51.494;-0.262;2024-03-22T18:30:45;50393.11;;;-145.72;41.15
28648;BME280;17137;51.494;-0.262;2024-03-22T18:31:16;50389.66;;;-145.72;40.88
28648;BME280;17137;51.494;-0.262;2024-03-22T18:31:46;50388.43;;;-145.72;40.71
28648;BME280;17137;51.494;-0.262;2024-03-22T18:32:17;50387.93;;;-145.72;40.87
28648;BME280;17137;51.494;-0.262;2024-03-22T18:32:47;50397.05;;;-145.72;41.07
28648;BME280;17137;51.494;-0.262;2024-03-22T18:33:18;50393.85;;;-145.72;41.07
28648;BME280;17137;51.494;-0.262;2024-03-22T18:33:49;50394.34;;;-145.72;41.13
28648;BME280;17137;51.494;-0.262;2024-03-22T18:34:19;50386.21;;;-145.72;41.22
28648;BME280;17137;51.494;-0.262;2024-03-22T18:34:50;50406.55;;;-145.72;41.28
28648;BME280;17137;51.494;-0.262;2024-03-22T18:35:21;50407.16;;;-145.72;41.51
28648;BME280;17137;51.494;-0.262;2024-03-22T18:35:52;50408.77;;;-145.72;41.75
28648;BME280;17137;51.494;-0.262;2024-03-22T18:36:23;50402.72;;;-145.72;41.84
28648;BME280;17137;51.494;-0.262;2024-03-22T18:36:53;50414.44;;;-145.72;41.83
28648;BME280;17137;51.494;-0.262;2024-03-22T18:37:24;50410.24;;;-145.72;41.63
28648;BME280;17137;51.494;-0.262;2024-03-22T18:37:54;50412.96;;;-145.72;41.77
28648;BME280;17137;51.494;-0.262;2024-03-22T18:38:25;50425.16;;;-145.72;42.42
28648;BME280;17137;51.494;-0.262;2024-03-22T18:38:55;50413.33;;;-145.72;42.25
28648;BME280;17137;51.494;-0.262;2024-03-22T18:39:26;50402.97;;;-145.72;42.17
28648;BME280;17137;51.494;-0.262;2024-03-22T18:39:56;50413.70;;;-145.72;42.06
28648;BME280;17137;51.494;-0.262;2024-03-22T18:40:27;50434.65;;;-145.72;42.28
28648;BME280;17137;51.494;-0.262;2024-03-22T18:40:57;50424.30;;;-145.72;42.48
28648;BME280;17137;51.494;-0.262;2024-03-22T18:41:28;50420.97;;;-145.72;42.66
28648;BME280;17137;51.494;-0.262;2024-03-22T18:41:59;50414.81;;;-145.72;42.40
28648;BME280;17137;51.494;-0.262;2024-03-22T18:42:30;50424.05;;;-145.72;42.53
28648;BME280;17137;51.494;-0.262;2024-03-22T18:43:00;50430.58;;;-145.72;42.43
28648;BME280;17137;51.494;-0.262;2024-03-22T18:43:35;50410.49;;;-145.72;42.37
28648;BME280;17137;51.494;-0.262;2024-03-22T18:44:06;50417.27;;;-145.72;42.25
28648;BME280;17137;51.494;-0.262;2024-03-22T18:44:37;50411.97;;;-145.72;42.32
28648;BME280;17137;51.494;-0.262;2024-03-22T18:45:14;50414.19;;;-145.72;42.37
28648;BME280;17137;51.494;-0.262;2024-03-22T18:45:45;50424.54;;;-145.72;42.29
28648;BME280;17137;51.494;-0.262;2024-03-22T18:46:15;50415.42;;;-145.72;42.21
28648;BME280;17137;51.494;-0.262;2024-03-22T18:46:46;50424.79;;;-145.72;42.44
28648;BME280;17137;51.494;-0.262;2024-03-22T18:47:16;50429.23;;;-145.72;42.65
28648;BME280;17137;51.494;-0.262;2024-03-22T18:47:47;50429.48;;;-145.72;43.00
28648;BME280;17137;51.494;-0.262;2024-03-22T18:48:23;50432.43;;;-145.72;43.26
28648;BME280;17137;51.494;-0.262;2024-03-22T18:48:53;50440.94;;;-145.72;43.70
28648;BME280;17137;51.494;-0.262;2024-03-22T18:49:28;50430.21;;;-145.72;43.81
28648;BME280;17137;51.494;-0.262;2024-03-22T18:49:59;50431.32;;;-145.72;44.15
28648;BME280;17137;51.494;-0.262;2024-03-22T18:50:30;50432.19;;;-145.72;44.24
28648;BME280;17137;51.494;-0.262;2024-03-22T18:51:00;50425.78;;;-145.72;44.08
28648;BME280;17137;51.494;-0.262;2024-03-22T18:51:31;50428.00;;;-145.72;43.86
28648;BME280;17137;51.494;-0.262;2024-03-22T18:52:01;50423.06;;;-145.72;43.71
28648;BME280;17137;51.494;-0.262;2024-03-22T18:52:31;50448.34;;;-145.72;44.05
28648;BME280;17137;51.494;-0.262;2024-03-22T18:53:02;50449.20;;;-145.72;44.11
28648;BME280;17137;51.494;-0.262;2024-03-22T18:53:33;50448.83;;;-145.72;44.19
28648;BME280;17137;51.494;-0.262;2024-03-22T18:54:03;50452.28;;;-145.72;44.41
28648;BME280;17137;51.494;-0.262;2024-03-22T18:54:34;50437.12;;;-145.72;44.46
28648;BME280;17137;51.494;-0.262;2024-03-22T18:55:05;50442.17;;;-145.72;44.58
28648;BME280;17137;51.494;-0.262;2024-03-22T18:55:36;50452.53;;;-145.72;44.83
28648;BME280;17137;51.494;-0.262;2024-03-22T18:56:06;50447.10;;;-145.72;44.73
28648;BME280;17137;51.494;-0.262;2024-03-22T18:56:37;50448.71;;;-145.72;44.84
28648;BME280;17137;51.494;-0.262;2024-03-22T18:57:07;50438.97;;;-145.72;44.89
28648;BME280;17137;51.494;-0.262;2024-03-22T18:57:43;50436.87;;;-145.72;44.59
28648;BME280;17137;51.494;-0.262;2024-03-22T18:58:13;50445.75;;;-145.72;44.55
28648;BME280;17137;51.494;-0.262;2024-03-22T18:58:43;50433.42;;;-145.72;44.43
28648;BME280;17137;51.494;-0.262;2024-03-22T18:59:14;50445.87;;;-145.72;44.58
28648;BME280;17137;51.494;-0.262;2024-03-22T18:59:50;50436.75;;;-145.72;44.54
28648;BME280;17137;51.494;-0.262;2024-03-22T19:00:20;50440.32;;;-145.72;44.50